PWSweather.com
Personal Weather Stations
Station Observations
NBW76
Silver Creek, North Bend, WA 98065

Silver CreekNorth Bend, WA 98065

Lat: 47.4993612, Lon: -121.7783245

Elevation: 443

Station Type: Davisd VP2 + Solar + UV + Webcam

Latest ConditionsUpdated 10:30:01 AM PST Tuesday, Nov 12, 2019
Currently Today's Max Today's Min Today's Average
Temperature 45.7°F7.6°C 54.1°F12.3°C 44.7°F7.1°C 48.5°F9.2°C
Dew Point 43.2°F6.2°C 43.2°F6.2°C 34.0°F1.1°C 39.5°F4.2°C
Winds Calm Calm 10.4 mph -16.7 kmh - - 2.6 mph 4.2 kmh
Wind Gusts 2.3 mph3.7 kmh 17.3 mph27.8 kmh - -
Humidity 91% 91% 47% 73%
Pressure 30.10 in1019.3 mb 30.10 in1019.3 mb 29.98 in1015.2 mb -
Precipitation - 0.27 in6.9 mm - -
Hour Temp Dew Point Humidity Winds Wind Gusts Pressure Precip Precip Rate Daily Precip Total
10:30 AM 45.7°F7.6°C 43.2°F6.2°C 91% Calm Calm 2.3 mph3.7 kmh 30.10 in1019.3 mb - 0.00 in0.0 mm 0.27 in6.9 mm
10:20 AM 45.6°F7.6°C 43.2°F6.2°C 91% Calm Calm -- 30.10 in1019.3 mb - 0.01 in0.3 mm 0.27 in6.9 mm
10:10 AM 45.4°F7.4°C 42.9°F6.1°C 91% Calm Calm -- 30.10 in1019.3 mb - 0.02 in0.5 mm 0.27 in6.9 mm
10:00 AM 45.4°F7.4°C 42.9°F6.1°C 91% Calm Calm -- 30.10 in1019.3 mb - 0.03 in0.8 mm 0.27 in6.9 mm
09:50 AM 45.4°F7.4°C 42.9°F6.1°C 91% Calm Calm -- 30.09 in1019.0 mb - 0.03 in0.8 mm 0.27 in6.9 mm
09:40 AM 45.3°F7.4°C 42.8°F6.0°C 91% Calm Calm -- 30.09 in1019.0 mb - 0.04 in1.0 mm 0.27 in6.9 mm
09:30 AM 45.1°F7.3°C 42.6°F5.9°C 91% Calm Calm -- 30.09 in1019.0 mb - 0.05 in1.3 mm 0.27 in6.9 mm
09:20 AM 44.9°F7.2°C 42.4°F5.8°C 91% 1.2 mph ESE1.9 kmh ESE 2.3 mph3.7 kmh 30.08 in1018.6 mb - 0.05 in1.3 mm 0.26 in6.6 mm
09:10 AM 45.0°F7.2°C 42.2°F5.7°C 90% Calm Calm 1.2 mph1.9 kmh 30.09 in1019.0 mb - 0.06 in1.5 mm 0.25 in6.4 mm
09:00 AM 44.8°F7.1°C 42.3°F5.7°C 91% 4.6 mph SE7.4 kmh SE 4.6 mph7.4 kmh 30.09 in1019.0 mb - 0.08 in2.0 mm 0.25 in6.4 mm
08:50 AM 44.7°F7.1°C 41.9°F5.5°C 90% 3.5 mph SE5.6 kmh SE 4.6 mph7.4 kmh 30.08 in1018.6 mb - 0.09 in2.3 mm 0.24 in6.1 mm
08:40 AM 44.9°F7.2°C 42.1°F5.6°C 90% 1.2 mph SE1.9 kmh SE 2.3 mph3.7 kmh 30.09 in1019.0 mb - 0.09 in2.3 mm 0.23 in5.8 mm
08:30 AM 44.9°F7.2°C 42.1°F5.6°C 90% 1.2 mph SE1.9 kmh SE 2.3 mph3.7 kmh 30.09 in1019.0 mb - 0.10 in2.5 mm 0.22 in5.6 mm
08:20 AM 44.9°F7.2°C 42.1°F5.6°C 90% Calm Calm -- 30.09 in1019.0 mb - 0.12 in3.0 mm 0.21 in5.3 mm
08:10 AM 44.9°F7.2°C 42.1°F5.6°C 90% Calm Calm -- 30.09 in1019.0 mb - 0.11 in2.8 mm 0.19 in4.8 mm
08:00 AM 44.9°F7.2°C 42.1°F5.6°C 90% Calm Calm -- 30.08 in1018.6 mb - 0.10 in2.5 mm 0.17 in4.3 mm
07:50 AM 45.1°F7.3°C 42.3°F5.7°C 90% Calm Calm -- 30.08 in1018.6 mb - 0.09 in2.3 mm 0.15 in3.8 mm
07:40 AM 45.1°F7.3°C 42.1°F5.6°C 89% Calm Calm -- 30.07 in1018.3 mb - 0.10 in2.5 mm 0.14 in3.6 mm
07:30 AM 45.1°F7.3°C 42.1°F5.6°C 89% 1.2 mph SSE1.9 kmh SSE 3.5 mph5.6 kmh 30.07 in1018.3 mb - 0.11 in2.8 mm 0.12 in3.0 mm
07:20 AM 45.0°F7.2°C 41.9°F5.5°C 89% 3.5 mph SE5.6 kmh SE 5.8 mph9.3 kmh 30.06 in1017.9 mb - 0.09 in2.3 mm 0.10 in2.5 mm
07:10 AM 45.0°F7.2°C 42.0°F5.6°C 89% 2.3 mph ESE3.7 kmh ESE 3.5 mph5.6 kmh 30.05 in1017.6 mb - 0.07 in1.8 mm 0.08 in2.0 mm
07:00 AM 45.1°F7.3°C 42.1°F5.6°C 89% 1.2 mph ESE1.9 kmh ESE 1.2 mph1.9 kmh 30.05 in1017.6 mb - 0.07 in1.8 mm 0.07 in1.8 mm
06:50 AM 45.2°F7.3°C 41.9°F5.5°C 88% 2.3 mph NE3.7 kmh NE 3.5 mph5.6 kmh 30.04 in1017.3 mb - 0.06 in1.5 mm 0.06 in1.5 mm
06:40 AM 45.2°F7.3°C 41.9°F5.5°C 88% Calm Calm -- 30.03 in1016.9 mb - 0.04 in1.0 mm 0.04 in1.0 mm
06:30 AM 45.3°F7.4°C 41.7°F5.4°C 87% 1.2 mph NE1.9 kmh NE 2.3 mph3.7 kmh 30.04 in1017.3 mb - 0.01 in0.3 mm 0.01 in0.3 mm
06:20 AM 45.7°F7.6°C 41.7°F5.4°C 86% 2.3 mph NW3.7 kmh NW 3.5 mph5.6 kmh 30.04 in1017.3 mb - 0.01 in0.3 mm 0.01 in0.3 mm
06:10 AM 45.9°F7.7°C 41.7°F5.4°C 85% 1.2 mph SW1.9 kmh SW 2.3 mph3.7 kmh 30.02 in1016.6 mb - 0.01 in0.3 mm 0.01 in0.3 mm
06:00 AM 46.1°F7.8°C 41.2°F5.1°C 83% 2.3 mph SSW3.7 kmh SSW 4.6 mph7.4 kmh 30.01 in1016.3 mb - 0.00 in0.0 mm 0.00 in0.0 mm
05:50 AM 46.4°F8.0°C 41.2°F5.1°C 82% 1.2 mph SW1.9 kmh SW 2.3 mph3.7 kmh 30.00 in1015.9 mb - 0.00 in0.0 mm 0.00 in0.0 mm
05:40 AM 46.5°F8.1°C 41.0°F5.0°C 81% 2.3 mph SW3.7 kmh SW 3.5 mph5.6 kmh 30.02 in1016.6 mb - 0.00 in0.0 mm 0.00 in0.0 mm
05:30 AM 46.9°F8.3°C 40.4°F4.7°C 78% 3.5 mph NNE5.6 kmh NNE 4.6 mph7.4 kmh 30.02 in1016.6 mb - 0.00 in0.0 mm 0.00 in0.0 mm
05:20 AM 47.6°F8.7°C 40.4°F4.7°C 76% 2.3 mph N3.7 kmh N 3.5 mph5.6 kmh 30.02 in1016.6 mb - 0.00 in0.0 mm 0.00 in0.0 mm
05:10 AM 48.2°F9.0°C 40.0°F4.4°C 73% 3.5 mph N5.6 kmh N 4.6 mph7.4 kmh 30.01 in1016.3 mb - 0.00 in0.0 mm 0.00 in0.0 mm
05:00 AM 50.4°F10.2°C 37.9°F3.3°C 62% 1.2 mph ESE1.9 kmh ESE 3.5 mph5.6 kmh 30.00 in1015.9 mb - 0.00 in0.0 mm 0.00 in0.0 mm
04:50 AM 50.6°F10.3°C 37.6°F3.1°C 61% 5.8 mph SE9.3 kmh SE 10.4 mph16.7 kmh 29.98 in1015.2 mb - 0.00 in0.0 mm 0.00 in0.0 mm
04:40 AM 50.4°F10.2°C 36.6°F2.6°C 59% 3.5 mph E5.6 kmh E 4.6 mph7.4 kmh 29.98 in1015.2 mb - 0.00 in0.0 mm 0.00 in0.0 mm
04:30 AM 50.7°F10.4°C 37.3°F2.9°C 60% 2.3 mph SE3.7 kmh SE 3.5 mph5.6 kmh 29.98 in1015.2 mb - 0.00 in0.0 mm 0.00 in0.0 mm
04:20 AM 51.6°F10.9°C 36.4°F2.4°C 56% 4.6 mph SE7.4 kmh SE 6.9 mph11.1 kmh 29.98 in1015.2 mb - 0.00 in0.0 mm 0.00 in0.0 mm
04:10 AM 51.8°F11.0°C 36.1°F2.3°C 55% 3.5 mph ESE5.6 kmh ESE 6.9 mph11.1 kmh 30.00 in1015.9 mb - 0.00 in0.0 mm 0.00 in0.0 mm
04:00 AM 50.8°F10.4°C 37.0°F2.8°C 59% 1.2 mph ESE1.9 kmh ESE 4.6 mph7.4 kmh 30.01 in1016.3 mb - 0.00 in0.0 mm 0.00 in0.0 mm
03:50 AM 50.3°F10.2°C 39.0°F3.9°C 65% 1.2 mph NE1.9 kmh NE 2.3 mph3.7 kmh 30.01 in1016.3 mb - 0.00 in0.0 mm 0.00 in0.0 mm
03:40 AM 50.1°F10.1°C 38.8°F3.8°C 65% 1.2 mph NW1.9 kmh NW 2.3 mph3.7 kmh 30.01 in1016.3 mb - 0.00 in0.0 mm 0.00 in0.0 mm
03:30 AM 48.9°F9.4°C 39.5°F4.2°C 70% 1.2 mph N1.9 kmh N 1.2 mph1.9 kmh 30.02 in1016.6 mb - 0.00 in0.0 mm 0.00 in0.0 mm
03:20 AM 49.5°F9.7°C 39.7°F4.3°C 69% 1.2 mph NNE1.9 kmh NNE 3.5 mph5.6 kmh 30.02 in1016.6 mb - 0.00 in0.0 mm 0.00 in0.0 mm
03:10 AM 50.3°F10.2°C 38.9°F3.8°C 65% 2.3 mph NNE3.7 kmh NNE 3.5 mph5.6 kmh 30.02 in1016.6 mb - 0.00 in0.0 mm 0.00 in0.0 mm
03:00 AM 52.0°F11.1°C 35.9°F2.2°C 54% 1.2 mph E1.9 kmh E 2.3 mph3.7 kmh 30.02 in1016.6 mb - 0.00 in0.0 mm 0.00 in0.0 mm
02:50 AM 52.3°F11.3°C 35.2°F1.8°C 52% 3.5 mph SE5.6 kmh SE 4.6 mph7.4 kmh 30.02 in1016.6 mb - 0.00 in0.0 mm 0.00 in0.0 mm
02:40 AM 52.9°F11.6°C 34.8°F1.6°C 50% 6.9 mph ESE11.1 kmh ESE 11.5 mph18.5 kmh 30.02 in1016.6 mb - 0.00 in0.0 mm 0.00 in0.0 mm
02:30 AM 52.8°F11.6°C 35.2°F1.8°C 51% 4.6 mph ESE7.4 kmh ESE 5.8 mph9.3 kmh 30.02 in1016.6 mb - 0.00 in0.0 mm 0.00 in0.0 mm
02:20 AM 51.3°F10.7°C 36.1°F2.3°C 56% 4.6 mph E7.4 kmh E 9.2 mph14.8 kmh 30.03 in1016.9 mb - 0.00 in0.0 mm 0.00 in0.0 mm
02:10 AM 49.1°F9.5°C 39.4°F4.1°C 69% 1.2 mph SSE1.9 kmh SSE 8.1 mph13.0 kmh 30.04 in1017.3 mb - 0.00 in0.0 mm 0.00 in0.0 mm
02:00 AM 49.3°F9.6°C 39.9°F4.4°C 70% 1.2 mph NW1.9 kmh NW 1.2 mph1.9 kmh 30.05 in1017.6 mb - 0.00 in0.0 mm 0.00 in0.0 mm
01:50 AM 49.5°F9.7°C 39.7°F4.3°C 69% Calm Calm -- 30.05 in1017.6 mb - 0.00 in0.0 mm 0.00 in0.0 mm
01:40 AM 49.9°F9.9°C 39.8°F4.3°C 68% 1.2 mph N1.9 kmh N 2.3 mph3.7 kmh 30.05 in1017.6 mb - 0.00 in0.0 mm 0.00 in0.0 mm
01:30 AM 52.8°F11.6°C 38.5°F3.6°C 58% 2.3 mph E3.7 kmh E 3.5 mph5.6 kmh 30.05 in1017.6 mb - 0.00 in0.0 mm 0.00 in0.0 mm
01:20 AM 53.5°F11.9°C 34.3°F1.3°C 48% 5.8 mph E9.3 kmh E 10.4 mph16.7 kmh 30.05 in1017.6 mb - 0.00 in0.0 mm 0.00 in0.0 mm
01:10 AM 53.6°F12.0°C 34.4°F1.3°C 48% 8.1 mph E13.0 kmh E 12.7 mph20.4 kmh 30.04 in1017.3 mb - 0.00 in0.0 mm 0.00 in0.0 mm
01:00 AM 53.8°F12.1°C 34.0°F1.1°C 47% 10.4 mph ESE16.7 kmh ESE 15.0 mph24.1 kmh 30.05 in1017.6 mb - 0.00 in0.0 mm 0.00 in0.0 mm
12:50 AM 53.6°F12.0°C 34.4°F1.3°C 48% 9.2 mph ESE14.8 kmh ESE 11.5 mph18.5 kmh 30.05 in1017.6 mb - 0.00 in0.0 mm 0.00 in0.0 mm
12:40 AM 53.6°F12.0°C 34.9°F1.6°C 49% 8.1 mph ESE13.0 kmh ESE 15.0 mph24.1 kmh 30.05 in1017.6 mb - 0.00 in0.0 mm 0.00 in0.0 mm
12:30 AM 53.7°F12.1°C 34.5°F1.4°C 48% 9.2 mph ESE14.8 kmh ESE 17.3 mph27.8 kmh 30.05 in1017.6 mb - 0.00 in0.0 mm 0.00 in0.0 mm
12:20 AM 53.8°F12.1°C 34.6°F1.4°C 48% 6.9 mph ESE11.1 kmh ESE 6.9 mph11.1 kmh 30.05 in1017.6 mb - 0.00 in0.0 mm 0.00 in0.0 mm
12:10 AM 54.0°F12.2°C 34.7°F1.5°C 48% 5.8 mph SE9.3 kmh SE 10.4 mph16.7 kmh 30.06 in1017.9 mb - 0.00 in0.0 mm 0.00 in0.0 mm
12:00 AM 54.1°F12.3°C 34.3°F1.3°C 47% 8.1 mph ESE13.0 kmh ESE 11.5 mph18.5 kmh 30.05 in1017.6 mb - 0.00 in0.0 mm 0.00 in0.0 mm